sensor_id;sensor_type;location;lat;lon;timestamp;P1;durP1;ratioP1;P2;durP2;ratioP2
77012;SDS011;67260;53.130;17.982;2023-07-09T00:01:13;6.90;;;2.90;;
77012;SDS011;67260;53.130;17.982;2023-07-09T00:03:46;4.60;;;2.50;;
77012;SDS011;67260;53.130;17.982;2023-07-09T00:06:17;6.80;;;2.90;;
77012;SDS011;67260;53.130;17.982;2023-07-09T00:08:44;6.50;;;3.00;;
77012;SDS011;67260;53.130;17.982;2023-07-09T00:11:15;5.10;;;2.80;;
77012;SDS011;67260;53.130;17.982;2023-07-09T00:13:41;5.20;;;2.90;;
77012;SDS011;67260;53.130;17.982;2023-07-09T00:16:42;6.30;;;2.90;;
77012;SDS011;67260;53.130;17.982;2023-07-09T00:19:00;6.30;;;3.00;;
77012;SDS011;67260;53.130;17.982;2023-07-09T00:21:28;7.70;;;2.80;;
77012;SDS011;67260;53.130;17.982;2023-07-09T00:24:00;6.40;;;3.40;;
77012;SDS011;67260;53.130;17.982;2023-07-09T00:26:31;7.30;;;3.30;;
77012;SDS011;67260;53.130;17.982;2023-07-09T00:28:58;8.10;;;3.10;;
77012;SDS011;67260;53.130;17.982;2023-07-09T00:31:26;4.70;;;2.90;;
77012;SDS011;67260;53.130;17.982;2023-07-09T00:33:52;7.50;;;2.80;;
77012;SDS011;67260;53.130;17.982;2023-07-09T00:39:00;6.30;;;3.30;;
77012;SDS011;67260;53.130;17.982;2023-07-09T00:41:32;7.40;;;3.90;;
77012;SDS011;67260;53.130;17.982;2023-07-09T00:44:21;4.80;;;2.60;;
77012;SDS011;67260;53.130;17.982;2023-07-09T00:49:29;7.80;;;3.20;;
77012;SDS011;67260;53.130;17.982;2023-07-09T00:52:00;8.20;;;3.40;;
77012;SDS011;67260;53.130;17.982;2023-07-09T00:54:31;6.00;;;3.50;;
77012;SDS011;67260;53.130;17.982;2023-07-09T00:57:05;7.40;;;3.40;;
77012;SDS011;67260;53.130;17.982;2023-07-09T00:59:37;7.00;;;3.40;;
77012;SDS011;67260;53.130;17.982;2023-07-09T01:02:06;6.20;;;3.30;;
77012;SDS011;67260;53.130;17.982;2023-07-09T01:04:33;7.40;;;3.40;;
77012;SDS011;67260;53.130;17.982;2023-07-09T01:07:01;6.20;;;3.10;;
77012;SDS011;67260;53.130;17.982;2023-07-09T01:09:27;7.40;;;3.10;;
77012;SDS011;67260;53.130;17.982;2023-07-09T01:11:53;7.40;;;3.50;;
77012;SDS011;67260;53.130;17.982;2023-07-09T01:14:22;5.80;;;3.20;;
77012;SDS011;67260;53.130;17.982;2023-07-09T01:16:58;8.20;;;3.10;;
77012;SDS011;67260;53.130;17.982;2023-07-09T01:19:28;6.60;;;3.60;;
77012;SDS011;67260;53.130;17.982;2023-07-09T01:21:59;6.40;;;3.10;;
77012;SDS011;67260;53.130;17.982;2023-07-09T01:27:17;5.50;;;3.00;;
77012;SDS011;67260;53.130;17.982;2023-07-09T01:29:46;4.90;;;2.80;;
77012;SDS011;67260;53.130;17.982;2023-07-09T01:32:15;5.70;;;3.30;;
77012;SDS011;67260;53.130;17.982;2023-07-09T01:34:48;5.50;;;2.90;;
77012;SDS011;67260;53.130;17.982;2023-07-09T01:37:17;5.20;;;3.00;;
77012;SDS011;67260;53.130;17.982;2023-07-09T01:39:45;6.00;;;3.30;;
77012;SDS011;67260;53.130;17.982;2023-07-09T01:42:11;6.90;;;3.30;;
77012;SDS011;67260;53.130;17.982;2023-07-09T01:44:38;6.90;;;3.10;;
77012;SDS011;67260;53.130;17.982;2023-07-09T01:47:05;4.90;;;3.00;;
77012;SDS011;67260;53.130;17.982;2023-07-09T01:52:00;7.50;;;3.20;;
77012;SDS011;67260;53.130;17.982;2023-07-09T01:54:29;6.60;;;3.30;;
77012;SDS011;67260;53.130;17.982;2023-07-09T01:57:12;6.30;;;3.30;;
77012;SDS011;67260;53.130;17.982;2023-07-09T01:59:40;6.60;;;3.40;;
77012;SDS011;67260;53.130;17.982;2023-07-09T02:02:07;9.40;;;3.60;;
77012;SDS011;67260;53.130;17.982;2023-07-09T02:04:34;5.60;;;3.10;;
77012;SDS011;67260;53.130;17.982;2023-07-09T02:07:00;7.60;;;3.00;;
77012;SDS011;67260;53.130;17.982;2023-07-09T02:09:26;9.30;;;3.20;;
77012;SDS011;67260;53.130;17.982;2023-07-09T02:11:52;7.20;;;2.90;;
77012;SDS011;67260;53.130;17.982;2023-07-09T02:14:18;6.40;;;3.20;;
77012;SDS011;67260;53.130;17.982;2023-07-09T02:16:45;7.60;;;3.60;;
77012;SDS011;67260;53.130;17.982;2023-07-09T02:19:11;6.60;;;3.20;;
77012;SDS011;67260;53.130;17.982;2023-07-09T02:21:37;6.50;;;3.30;;
77012;SDS011;67260;53.130;17.982;2023-07-09T02:24:03;6.70;;;3.00;;
77012;SDS011;67260;53.130;17.982;2023-07-09T02:26:29;6.20;;;3.40;;
77012;SDS011;67260;53.130;17.982;2023-07-09T02:28:55;7.30;;;3.40;;
77012;SDS011;67260;53.130;17.982;2023-07-09T02:31:21;8.30;;;3.40;;
77012;SDS011;67260;53.130;17.982;2023-07-09T02:33:47;8.60;;;3.40;;
77012;SDS011;67260;53.130;17.982;2023-07-09T02:36:13;5.70;;;3.30;;
77012;SDS011;67260;53.130;17.982;2023-07-09T02:38:39;6.40;;;3.20;;
77012;SDS011;67260;53.130;17.982;2023-07-09T02:41:05;6.80;;;3.60;;
77012;SDS011;67260;53.130;17.982;2023-07-09T02:43:31;6.50;;;3.70;;
77012;SDS011;67260;53.130;17.982;2023-07-09T02:48:23;5.70;;;3.40;;
77012;SDS011;67260;53.130;17.982;2023-07-09T02:50:49;5.20;;;3.20;;
77012;SDS011;67260;53.130;17.982;2023-07-09T02:53:15;6.00;;;3.20;;
77012;SDS011;67260;53.130;17.982;2023-07-09T02:55:41;7.90;;;3.70;;
77012;SDS011;67260;53.130;17.982;2023-07-09T02:58:08;5.00;;;3.10;;
77012;SDS011;67260;53.130;17.982;2023-07-09T03:00:34;6.50;;;3.30;;
77012;SDS011;67260;53.130;17.982;2023-07-09T03:03:00;5.40;;;3.30;;
77012;SDS011;67260;53.130;17.982;2023-07-09T03:07:52;5.80;;;3.00;;
77012;SDS011;67260;53.130;17.982;2023-07-09T03:10:18;5.10;;;3.30;;
77012;SDS011;67260;53.130;17.982;2023-07-09T03:12:44;7.90;;;3.30;;
77012;SDS011;67260;53.130;17.982;2023-07-09T03:15:10;5.20;;;3.20;;
77012;SDS011;67260;53.130;17.982;2023-07-09T03:17:37;6.30;;;3.30;;
77012;SDS011;67260;53.130;17.982;2023-07-09T03:20:03;11.20;;;3.60;;
77012;SDS011;67260;53.130;17.982;2023-07-09T03:22:31;7.40;;;3.50;;
77012;SDS011;67260;53.130;17.982;2023-07-09T03:24:57;7.50;;;3.50;;
77012;SDS011;67260;53.130;17.982;2023-07-09T03:27:24;7.20;;;3.50;;
77012;SDS011;67260;53.130;17.982;2023-07-09T03:29:50;7.10;;;3.40;;
77012;SDS011;67260;53.130;17.982;2023-07-09T03:32:16;6.40;;;3.50;;
77012;SDS011;67260;53.130;17.982;2023-07-09T03:34:42;7.20;;;3.70;;
77012;SDS011;67260;53.130;17.982;2023-07-09T03:37:08;7.60;;;3.80;;
77012;SDS011;67260;53.130;17.982;2023-07-09T03:39:34;8.10;;;3.30;;
77012;SDS011;67260;53.130;17.982;2023-07-09T03:42:00;7.30;;;3.50;;
77012;SDS011;67260;53.130;17.982;2023-07-09T03:44:26;6.60;;;3.50;;
77012;SDS011;67260;53.130;17.982;2023-07-09T03:46:52;5.50;;;3.20;;
77012;SDS011;67260;53.130;17.982;2023-07-09T03:49:18;6.00;;;3.40;;
77012;SDS011;67260;53.130;17.982;2023-07-09T03:51:44;6.00;;;3.40;;
77012;SDS011;67260;53.130;17.982;2023-07-09T03:54:10;7.40;;;3.60;;
77012;SDS011;67260;53.130;17.982;2023-07-09T03:56:36;7.50;;;4.60;;
77012;SDS011;67260;53.130;17.982;2023-07-09T03:59:02;7.40;;;4.00;;
77012;SDS011;67260;53.130;17.982;2023-07-09T04:03:54;8.00;;;4.40;;
77012;SDS011;67260;53.130;17.982;2023-07-09T04:06:20;7.60;;;4.70;;
77012;SDS011;67260;53.130;17.982;2023-07-09T04:08:46;9.40;;;5.70;;
77012;SDS011;67260;53.130;17.982;2023-07-09T04:11:12;8.60;;;4.60;;
77012;SDS011;67260;53.130;17.982;2023-07-09T04:13:38;9.30;;;5.10;;
77012;SDS011;67260;53.130;17.982;2023-07-09T04:18:30;6.50;;;4.30;;
77012;SDS011;67260;53.130;17.982;2023-07-09T04:20:56;7.30;;;4.10;;
77012;SDS011;67260;53.130;17.982;2023-07-09T04:23:22;6.80;;;4.30;;
77012;SDS011;67260;53.130;17.982;2023-07-09T04:25:48;6.50;;;3.70;;
77012;SDS011;67260;53.130;17.982;2023-07-09T04:28:15;7.10;;;3.30;;
77012;SDS011;67260;53.130;17.982;2023-07-09T04:30:50;7.00;;;3.90;;
77012;SDS011;67260;53.130;17.982;2023-07-09T04:33:17;6.10;;;3.80;;
77012;SDS011;67260;53.130;17.982;2023-07-09T04:35:45;5.90;;;3.30;;
77012;SDS011;67260;53.130;17.982;2023-07-09T04:38:11;6.70;;;3.30;;
77012;SDS011;67260;53.130;17.982;2023-07-09T04:40:39;6.50;;;3.40;;
77012;SDS011;67260;53.130;17.982;2023-07-09T04:43:05;6.70;;;3.20;;
77012;SDS011;67260;53.130;17.982;2023-07-09T04:47:57;6.20;;;3.30;;
77012;SDS011;67260;53.130;17.982;2023-07-09T04:50:23;5.90;;;3.00;;
77012;SDS011;67260;53.130;17.982;2023-07-09T04:52:48;8.30;;;3.30;;
77012;SDS011;67260;53.130;17.982;2023-07-09T04:55:14;6.20;;;2.90;;
77012;SDS011;67260;53.130;17.982;2023-07-09T04:57:40;6.60;;;3.10;;
77012;SDS011;67260;53.130;17.982;2023-07-09T05:02:33;7.30;;;3.50;;
77012;SDS011;67260;53.130;17.982;2023-07-09T05:07:26;5.10;;;2.70;;
77012;SDS011;67260;53.130;17.982;2023-07-09T05:09:52;6.50;;;3.10;;
77012;SDS011;67260;53.130;17.982;2023-07-09T05:12:19;5.50;;;2.30;;
77012;SDS011;67260;53.130;17.982;2023-07-09T05:14:46;6.30;;;2.90;;
77012;SDS011;67260;53.130;17.982;2023-07-09T05:17:12;6.20;;;2.90;;
77012;SDS011;67260;53.130;17.982;2023-07-09T05:19:38;4.90;;;2.80;;
77012;SDS011;67260;53.130;17.982;2023-07-09T05:22:04;4.90;;;2.20;;
77012;SDS011;67260;53.130;17.982;2023-07-09T05:24:30;5.90;;;2.50;;
77012;SDS011;67260;53.130;17.982;2023-07-09T05:26:56;5.70;;;2.60;;
77012;SDS011;67260;53.130;17.982;2023-07-09T05:29:22;6.60;;;2.40;;
77012;SDS011;67260;53.130;17.982;2023-07-09T05:31:49;4.20;;;1.70;;
77012;SDS011;67260;53.130;17.982;2023-07-09T05:34:15;4.50;;;2.00;;
77012;SDS011;67260;53.130;17.982;2023-07-09T05:36:41;4.40;;;1.70;;
77012;SDS011;67260;53.130;17.982;2023-07-09T05:39:07;4.00;;;1.80;;
77012;SDS011;67260;53.130;17.982;2023-07-09T05:41:33;4.00;;;1.50;;
77012;SDS011;67260;53.130;17.982;2023-07-09T05:43:59;3.60;;;1.70;;
77012;SDS011;67260;53.130;17.982;2023-07-09T05:46:25;3.40;;;1.50;;
77012;SDS011;67260;53.130;17.982;2023-07-09T05:48:51;3.00;;;1.50;;
77012;SDS011;67260;53.130;17.982;2023-07-09T05:51:17;3.40;;;1.50;;
77012;SDS011;67260;53.130;17.982;2023-07-09T05:53:43;4.90;;;1.40;;
77012;SDS011;67260;53.130;17.982;2023-07-09T05:56:09;3.90;;;1.40;;
77012;SDS011;67260;53.130;17.982;2023-07-09T05:58:36;5.80;;;1.40;;
77012;SDS011;67260;53.130;17.982;2023-07-09T06:01:02;3.60;;;1.50;;
77012;SDS011;67260;53.130;17.982;2023-07-09T06:03:28;3.60;;;1.40;;
77012;SDS011;67260;53.130;17.982;2023-07-09T06:05:56;4.50;;;1.40;;
77012;SDS011;67260;53.130;17.982;2023-07-09T06:08:23;3.30;;;1.20;;
77012;SDS011;67260;53.130;17.982;2023-07-09T06:10:59;3.00;;;1.30;;
77012;SDS011;67260;53.130;17.982;2023-07-09T06:13:28;4.30;;;1.30;;
77012;SDS011;67260;53.130;17.982;2023-07-09T06:15:56;3.70;;;1.20;;
77012;SDS011;67260;53.130;17.982;2023-07-09T06:18:24;3.00;;;1.30;;
77012;SDS011;67260;53.130;17.982;2023-07-09T06:20:55;3.40;;;1.20;;
77012;SDS011;67260;53.130;17.982;2023-07-09T06:23:25;2.50;;;1.20;;
77012;SDS011;67260;53.130;17.982;2023-07-09T06:25:52;4.30;;;1.60;;
77012;SDS011;67260;53.130;17.982;2023-07-09T06:28:21;2.90;;;1.30;;
77012;SDS011;67260;53.130;17.982;2023-07-09T06:30:48;3.10;;;1.40;;
77012;SDS011;67260;53.130;17.982;2023-07-09T06:33:17;2.90;;;1.30;;
77012;SDS011;67260;53.130;17.982;2023-07-09T06:35:48;3.60;;;1.20;;
77012;SDS011;67260;53.130;17.982;2023-07-09T06:38:16;4.90;;;1.30;;
77012;SDS011;67260;53.130;17.982;2023-07-09T06:40:42;3.20;;;1.50;;
77012;SDS011;67260;53.130;17.982;2023-07-09T06:43:09;3.00;;;1.30;;
77012;SDS011;67260;53.130;17.982;2023-07-09T06:45:37;4.00;;;1.50;;
77012;SDS011;67260;53.130;17.982;2023-07-09T06:48:04;5.40;;;1.20;;
77012;SDS011;67260;53.130;17.982;2023-07-09T06:50:34;3.10;;;1.30;;
77012;SDS011;67260;53.130;17.982;2023-07-09T06:53:00;4.00;;;1.20;;
77012;SDS011;67260;53.130;17.982;2023-07-09T06:55:26;3.50;;;1.30;;
77012;SDS011;67260;53.130;17.982;2023-07-09T06:57:52;4.30;;;1.30;;
77012;SDS011;67260;53.130;17.982;2023-07-09T07:00:19;2.40;;;1.10;;
77012;SDS011;67260;53.130;17.982;2023-07-09T07:02:45;3.20;;;1.20;;
77012;SDS011;67260;53.130;17.982;2023-07-09T07:05:11;3.50;;;1.30;;
77012;SDS011;67260;53.130;17.982;2023-07-09T07:07:37;2.70;;;1.20;;
77012;SDS011;67260;53.130;17.982;2023-07-09T07:10:03;5.00;;;1.20;;
77012;SDS011;67260;53.130;17.982;2023-07-09T07:12:39;3.10;;;1.20;;
77012;SDS011;67260;53.130;17.982;2023-07-09T07:15:08;3.60;;;1.30;;
77012;SDS011;67260;53.130;17.982;2023-07-09T07:17:34;2.20;;;1.20;;
77012;SDS011;67260;53.130;17.982;2023-07-09T07:20:00;2.50;;;1.00;;
77012;SDS011;67260;53.130;17.982;2023-07-09T07:22:26;3.20;;;1.30;;
77012;SDS011;67260;53.130;17.982;2023-07-09T07:24:52;2.90;;;1.20;;
77012;SDS011;67260;53.130;17.982;2023-07-09T07:27:18;3.10;;;1.30;;
77012;SDS011;67260;53.130;17.982;2023-07-09T07:29:44;3.40;;;1.40;;
77012;SDS011;67260;53.130;17.982;2023-07-09T07:32:11;3.20;;;1.50;;
77012;SDS011;67260;53.130;17.982;2023-07-09T07:34:37;2.80;;;1.30;;
77012;SDS011;67260;53.130;17.982;2023-07-09T07:37:03;3.50;;;1.30;;
77012;SDS011;67260;53.130;17.982;2023-07-09T07:39:30;2.70;;;1.20;;
77012;SDS011;67260;53.130;17.982;2023-07-09T07:41:57;2.90;;;1.00;;
77012;SDS011;67260;53.130;17.982;2023-07-09T07:44:23;2.90;;;1.20;;
77012;SDS011;67260;53.130;17.982;2023-07-09T07:46:49;2.50;;;1.10;;
77012;SDS011;67260;53.130;17.982;2023-07-09T07:49:15;4.00;;;1.20;;
77012;SDS011;67260;53.130;17.982;2023-07-09T07:51:41;3.50;;;1.30;;
77012;SDS011;67260;53.130;17.982;2023-07-09T07:54:08;3.20;;;1.30;;
77012;SDS011;67260;53.130;17.982;2023-07-09T07:56:36;2.60;;;1.30;;
77012;SDS011;67260;53.130;17.982;2023-07-09T07:59:02;3.20;;;1.20;;
77012;SDS011;67260;53.130;17.982;2023-07-09T08:01:29;2.60;;;1.10;;
77012;SDS011;67260;53.130;17.982;2023-07-09T08:03:55;3.60;;;1.20;;
77012;SDS011;67260;53.130;17.982;2023-07-09T08:06:21;2.80;;;1.30;;
77012;SDS011;67260;53.130;17.982;2023-07-09T08:08:47;3.60;;;1.50;;
77012;SDS011;67260;53.130;17.982;2023-07-09T08:11:14;3.00;;;1.40;;
77012;SDS011;67260;53.130;17.982;2023-07-09T08:13:40;2.60;;;1.20;;
77012;SDS011;67260;53.130;17.982;2023-07-09T08:16:07;3.00;;;1.30;;
77012;SDS011;67260;53.130;17.982;2023-07-09T08:18:33;3.10;;;1.20;;
77012;SDS011;67260;53.130;17.982;2023-07-09T08:21:00;2.70;;;1.20;;
77012;SDS011;67260;53.130;17.982;2023-07-09T08:23:26;4.90;;;1.20;;
77012;SDS011;67260;53.130;17.982;2023-07-09T08:25:55;3.30;;;1.30;;
77012;SDS011;67260;53.130;17.982;2023-07-09T08:28:25;4.20;;;1.20;;
77012;SDS011;67260;53.130;17.982;2023-07-09T08:30:51;3.50;;;1.30;;
77012;SDS011;67260;53.130;17.982;2023-07-09T08:33:19;2.60;;;1.40;;
77012;SDS011;67260;53.130;17.982;2023-07-09T08:35:48;2.10;;;1.20;;
77012;SDS011;67260;53.130;17.982;2023-07-09T08:38:15;3.20;;;1.10;;
77012;SDS011;67260;53.130;17.982;2023-07-09T08:40:42;2.00;;;1.10;;
77012;SDS011;67260;53.130;17.982;2023-07-09T08:43:30;2.30;;;1.10;;
77012;SDS011;67260;53.130;17.982;2023-07-09T08:46:20;2.80;;;1.30;;
77012;SDS011;67260;53.130;17.982;2023-07-09T08:48:52;2.80;;;1.20;;
77012;SDS011;67260;53.130;17.982;2023-07-09T08:51:33;2.20;;;1.20;;
77012;SDS011;67260;53.130;17.982;2023-07-09T08:54:04;3.50;;;1.30;;
77012;SDS011;67260;53.130;17.982;2023-07-09T08:56:40;3.70;;;1.20;;
77012;SDS011;67260;53.130;17.982;2023-07-09T08:59:07;3.50;;;1.50;;
77012;SDS011;67260;53.130;17.982;2023-07-09T09:01:43;2.40;;;1.20;;
77012;SDS011;67260;53.130;17.982;2023-07-09T09:04:30;2.50;;;1.00;;
77012;SDS011;67260;53.130;17.982;2023-07-09T09:07:08;3.10;;;1.30;;
77012;SDS011;67260;53.130;17.982;2023-07-09T09:09:57;2.60;;;1.20;;
77012;SDS011;67260;53.130;17.982;2023-07-09T09:12:28;1.80;;;0.90;;
77012;SDS011;67260;53.130;17.982;2023-07-09T09:15:15;1.70;;;0.90;;
77012;SDS011;67260;53.130;17.982;2023-07-09T09:17:54;1.30;;;0.80;;
77012;SDS011;67260;53.130;17.982;2023-07-09T09:20:24;1.90;;;1.00;;
77012;SDS011;67260;53.130;17.982;2023-07-09T09:25:35;2.30;;;1.00;;
77012;SDS011;67260;53.130;17.982;2023-07-09T09:28:08;3.40;;;1.10;;
77012;SDS011;67260;53.130;17.982;2023-07-09T09:30:35;1.90;;;1.00;;
77012;SDS011;67260;53.130;17.982;2023-07-09T09:33:05;2.70;;;1.10;;
77012;SDS011;67260;53.130;17.982;2023-07-09T09:35:38;2.50;;;1.00;;
77012;SDS011;67260;53.130;17.982;2023-07-09T09:38:13;2.10;;;1.10;;
77012;SDS011;67260;53.130;17.982;2023-07-09T09:40:45;2.50;;;1.00;;
77012;SDS011;67260;53.130;17.982;2023-07-09T09:43:17;4.20;;;1.00;;
77012;SDS011;67260;53.130;17.982;2023-07-09T09:45:49;2.50;;;1.20;;
77012;SDS011;67260;53.130;17.982;2023-07-09T09:48:20;1.90;;;0.90;;
77012;SDS011;67260;53.130;17.982;2023-07-09T09:50:53;2.00;;;0.90;;
77012;SDS011;67260;53.130;17.982;2023-07-09T09:53:22;2.20;;;0.90;;
77012;SDS011;67260;53.130;17.982;2023-07-09T09:55:53;2.10;;;1.00;;
77012;SDS011;67260;53.130;17.982;2023-07-09T09:58:24;2.80;;;0.80;;
77012;SDS011;67260;53.130;17.982;2023-07-09T10:00:55;1.80;;;1.00;;
77012;SDS011;67260;53.130;17.982;2023-07-09T10:03:34;2.10;;;1.00;;
77012;SDS011;67260;53.130;17.982;2023-07-09T10:06:49;2.10;;;1.00;;
77012;SDS011;67260;53.130;17.982;2023-07-09T10:14:58;1.90;;;1.10;;
77012;SDS011;67260;53.130;17.982;2023-07-09T10:34:31;2.00;;;1.00;;
77012;SDS011;67260;53.130;17.982;2023-07-09T10:39:58;3.10;;;1.10;;
77012;SDS011;67260;53.130;17.982;2023-07-09T10:42:30;1.90;;;1.00;;
77012;SDS011;67260;53.130;17.982;2023-07-09T10:45:15;2.20;;;1.10;;
77012;SDS011;67260;53.130;17.982;2023-07-09T10:47:48;2.40;;;1.20;;
77012;SDS011;67260;53.130;17.982;2023-07-09T10:50:31;2.50;;;1.10;;
77012;SDS011;67260;53.130;17.982;2023-07-09T10:53:14;2.50;;;1.10;;
77012;SDS011;67260;53.130;17.982;2023-07-09T10:55:53;1.90;;;1.00;;
77012;SDS011;67260;53.130;17.982;2023-07-09T10:58:31;3.20;;;1.40;;
77012;SDS011;67260;53.130;17.982;2023-07-09T11:00:59;3.60;;;1.30;;
77012;SDS011;67260;53.130;17.982;2023-07-09T11:06:58;2.00;;;1.10;;
77012;SDS011;67260;53.130;17.982;2023-07-09T11:09:31;2.20;;;1.10;;
77012;SDS011;67260;53.130;17.982;2023-07-09T11:12:02;2.30;;;1.10;;
77012;SDS011;67260;53.130;17.982;2023-07-09T11:14:37;2.00;;;1.10;;
77012;SDS011;67260;53.130;17.982;2023-07-09T11:17:15;2.30;;;1.20;;
77012;SDS011;67260;53.130;17.982;2023-07-09T11:19:47;2.90;;;1.10;;
77012;SDS011;67260;53.130;17.982;2023-07-09T11:22:21;2.50;;;1.40;;
77012;SDS011;67260;53.130;17.982;2023-07-09T11:25:08;2.30;;;1.20;;
77012;SDS011;67260;53.130;17.982;2023-07-09T11:27:48;3.10;;;1.20;;
77012;SDS011;67260;53.130;17.982;2023-07-09T11:30:21;2.70;;;1.40;;
77012;SDS011;67260;53.130;17.982;2023-07-09T11:32:56;3.30;;;1.30;;
77012;SDS011;67260;53.130;17.982;2023-07-09T11:35:24;3.80;;;1.40;;
77012;SDS011;67260;53.130;17.982;2023-07-09T11:37:55;2.20;;;1.20;;
77012;SDS011;67260;53.130;17.982;2023-07-09T11:40:26;2.50;;;1.10;;
77012;SDS011;67260;53.130;17.982;2023-07-09T11:42:56;2.90;;;1.40;;
77012;SDS011;67260;53.130;17.982;2023-07-09T11:45:26;1.90;;;1.10;;
77012;SDS011;67260;53.130;17.982;2023-07-09T11:48:11;2.40;;;1.20;;
77012;SDS011;67260;53.130;17.982;2023-07-09T11:50:53;3.50;;;1.30;;
77012;SDS011;67260;53.130;17.982;2023-07-09T11:56:13;3.00;;;1.10;;
77012;SDS011;67260;53.130;17.982;2023-07-09T11:58:52;2.50;;;1.40;;
77012;SDS011;67260;53.130;17.982;2023-07-09T12:01:57;2.40;;;1.20;;
77012;SDS011;67260;53.130;17.982;2023-07-09T12:06:47;5.30;;;1.50;;
77012;SDS011;67260;53.130;17.982;2023-07-09T12:09:22;2.40;;;1.20;;
77012;SDS011;67260;53.130;17.982;2023-07-09T12:11:49;4.30;;;1.30;;
77012;SDS011;67260;53.130;17.982;2023-07-09T12:14:18;3.70;;;1.30;;
77012;SDS011;67260;53.130;17.982;2023-07-09T12:16:47;4.30;;;1.70;;
77012;SDS011;67260;53.130;17.982;2023-07-09T12:19:16;2.50;;;1.30;;
77012;SDS011;67260;53.130;17.982;2023-07-09T12:21:44;2.80;;;1.40;;
77012;SDS011;67260;53.130;17.982;2023-07-09T12:24:29;2.60;;;1.40;;
77012;SDS011;67260;53.130;17.982;2023-07-09T12:29:30;3.20;;;1.40;;
77012;SDS011;67260;53.130;17.982;2023-07-09T12:32:03;2.20;;;1.20;;
77012;SDS011;67260;53.130;17.982;2023-07-09T12:34:37;2.90;;;1.20;;
77012;SDS011;67260;53.130;17.982;2023-07-09T12:37:03;3.20;;;1.30;;
77012;SDS011;67260;53.130;17.982;2023-07-09T12:39:31;2.60;;;1.40;;
77012;SDS011;67260;53.130;17.982;2023-07-09T12:41:59;2.50;;;1.30;;
77012;SDS011;67260;53.130;17.982;2023-07-09T12:44:28;2.50;;;1.20;;
77012;SDS011;67260;53.130;17.982;2023-07-09T12:46:57;2.70;;;1.30;;
77012;SDS011;67260;53.130;17.982;2023-07-09T12:49:28;2.30;;;1.20;;
77012;SDS011;67260;53.130;17.982;2023-07-09T12:52:00;2.70;;;1.40;;
77012;SDS011;67260;53.130;17.982;2023-07-09T12:54:28;6.10;;;1.50;;
77012;SDS011;67260;53.130;17.982;2023-07-09T12:56:56;2.50;;;1.50;;
77012;SDS011;67260;53.130;17.982;2023-07-09T12:59:36;2.50;;;1.30;;
77012;SDS011;67260;53.130;17.982;2023-07-09T13:02:13;2.70;;;1.30;;
77012;SDS011;67260;53.130;17.982;2023-07-09T13:04:42;3.50;;;1.40;;
77012;SDS011;67260;53.130;17.982;2023-07-09T13:10:07;2.60;;;1.20;;
77012;SDS011;67260;53.130;17.982;2023-07-09T13:12:44;2.60;;;1.30;;
77012;SDS011;67260;53.130;17.982;2023-07-09T13:15:23;3.00;;;1.30;;
77012;SDS011;67260;53.130;17.982;2023-07-09T13:17:59;2.40;;;1.20;;
77012;SDS011;67260;53.130;17.982;2023-07-09T13:20:27;2.50;;;1.20;;
77012;SDS011;67260;53.130;17.982;2023-07-09T13:22:54;2.20;;;1.20;;
77012;SDS011;67260;53.130;17.982;2023-07-09T13:25:23;2.60;;;1.20;;
77012;SDS011;67260;53.130;17.982;2023-07-09T13:27:50;3.00;;;1.60;;
77012;SDS011;67260;53.130;17.982;2023-07-09T13:30:16;3.20;;;1.20;;
77012;SDS011;67260;53.130;17.982;2023-07-09T13:32:44;2.30;;;1.30;;
77012;SDS011;67260;53.130;17.982;2023-07-09T13:35:16;2.70;;;1.20;;
77012;SDS011;67260;53.130;17.982;2023-07-09T13:37:44;2.50;;;1.20;;
77012;SDS011;67260;53.130;17.982;2023-07-09T13:40:14;3.10;;;1.30;;
77012;SDS011;67260;53.130;17.982;2023-07-09T13:42:42;3.70;;;1.40;;
77012;SDS011;67260;53.130;17.982;2023-07-09T13:45:22;2.70;;;1.50;;
77012;SDS011;67260;53.130;17.982;2023-07-09T13:47:51;3.40;;;1.70;;
77012;SDS011;67260;53.130;17.982;2023-07-09T13:50:19;2.80;;;1.30;;
77012;SDS011;67260;53.130;17.982;2023-07-09T13:52:46;3.10;;;1.40;;
77012;SDS011;67260;53.130;17.982;2023-07-09T13:55:17;3.10;;;1.30;;
77012;SDS011;67260;53.130;17.982;2023-07-09T13:57:52;2.30;;;1.20;;
77012;SDS011;67260;53.130;17.982;2023-07-09T14:00:18;4.70;;;1.50;;
77012;SDS011;67260;53.130;17.982;2023-07-09T14:02:45;2.50;;;1.30;;
77012;SDS011;67260;53.130;17.982;2023-07-09T14:05:12;2.40;;;1.20;;
77012;SDS011;67260;53.130;17.982;2023-07-09T14:07:40;2.50;;;1.20;;
77012;SDS011;67260;53.130;17.982;2023-07-09T14:10:12;2.30;;;1.30;;
77012;SDS011;67260;53.130;17.982;2023-07-09T14:12:44;2.40;;;1.40;;
77012;SDS011;67260;53.130;17.982;2023-07-09T14:15:13;2.80;;;1.30;;
77012;SDS011;67260;53.130;17.982;2023-07-09T14:17:45;3.40;;;1.40;;
77012;SDS011;67260;53.130;17.982;2023-07-09T14:20:15;2.80;;;1.50;;
77012;SDS011;67260;53.130;17.982;2023-07-09T14:22:43;2.30;;;1.30;;
77012;SDS011;67260;53.130;17.982;2023-07-09T14:25:20;2.50;;;1.40;;
77012;SDS011;67260;53.130;17.982;2023-07-09T14:27:54;3.40;;;1.50;;
77012;SDS011;67260;53.130;17.982;2023-07-09T14:30:21;2.90;;;1.50;;
77012;SDS011;67260;53.130;17.982;2023-07-09T14:32:49;2.40;;;1.30;;
77012;SDS011;67260;53.130;17.982;2023-07-09T14:35:18;2.60;;;1.30;;
77012;SDS011;67260;53.130;17.982;2023-07-09T14:37:47;2.80;;;1.60;;
77012;SDS011;67260;53.130;17.982;2023-07-09T14:40:15;3.10;;;1.40;;
77012;SDS011;67260;53.130;17.982;2023-07-09T14:42:49;4.00;;;1.60;;
77012;SDS011;67260;53.130;17.982;2023-07-09T14:45:17;4.90;;;1.70;;
77012;SDS011;67260;53.130;17.982;2023-07-09T14:47:45;2.50;;;1.50;;
77012;SDS011;67260;53.130;17.982;2023-07-09T14:50:12;2.70;;;1.50;;
77012;SDS011;67260;53.130;17.982;2023-07-09T14:52:38;3.10;;;1.60;;
77012;SDS011;67260;53.130;17.982;2023-07-09T14:55:09;4.80;;;1.80;;
77012;SDS011;67260;53.130;17.982;2023-07-09T14:57:45;3.10;;;1.50;;
77012;SDS011;67260;53.130;17.982;2023-07-09T15:00:12;3.10;;;1.70;;
77012;SDS011;67260;53.130;17.982;2023-07-09T15:02:42;3.00;;;1.40;;
77012;SDS011;67260;53.130;17.982;2023-07-09T15:05:13;3.00;;;1.60;;
77012;SDS011;67260;53.130;17.982;2023-07-09T15:07:42;3.10;;;1.60;;
77012;SDS011;67260;53.130;17.982;2023-07-09T15:10:13;5.00;;;1.60;;
77012;SDS011;67260;53.130;17.982;2023-07-09T15:12:49;3.20;;;1.40;;
77012;SDS011;67260;53.130;17.982;2023-07-09T15:15:28;3.80;;;1.60;;
77012;SDS011;67260;53.130;17.982;2023-07-09T15:17:56;2.60;;;1.50;;
77012;SDS011;67260;53.130;17.982;2023-07-09T15:20:28;3.60;;;1.90;;
77012;SDS011;67260;53.130;17.982;2023-07-09T15:22:55;2.90;;;1.60;;
77012;SDS011;67260;53.130;17.982;2023-07-09T15:25:25;3.90;;;1.80;;
77012;SDS011;67260;53.130;17.982;2023-07-09T15:27:54;4.00;;;1.40;;
77012;SDS011;67260;53.130;17.982;2023-07-09T15:30:25;3.80;;;1.50;;
77012;SDS011;67260;53.130;17.982;2023-07-09T15:32:55;3.20;;;1.50;;
77012;SDS011;67260;53.130;17.982;2023-07-09T15:35:22;3.90;;;1.50;;
77012;SDS011;67260;53.130;17.982;2023-07-09T15:37:52;4.20;;;1.60;;
77012;SDS011;67260;53.130;17.982;2023-07-09T15:40:19;5.70;;;1.60;;
77012;SDS011;67260;53.130;17.982;2023-07-09T15:42:48;3.10;;;1.70;;
77012;SDS011;67260;53.130;17.982;2023-07-09T15:45:19;2.60;;;1.50;;
77012;SDS011;67260;53.130;17.982;2023-07-09T15:47:48;3.20;;;1.70;;
77012;SDS011;67260;53.130;17.982;2023-07-09T15:50:22;3.10;;;1.40;;
77012;SDS011;67260;53.130;17.982;2023-07-09T15:52:53;6.40;;;2.30;;
77012;SDS011;67260;53.130;17.982;2023-07-09T15:55:26;3.00;;;1.70;;
77012;SDS011;67260;53.130;17.982;2023-07-09T15:57:54;2.70;;;1.50;;